< < Back
Terminal Aerodrome Forecast


Current Version              Previous Versions:   1  2  3  4  5  6  7  8  9  

Terminal Aerodrome Forecast

744
FTUS44 KBMX 241100
TAFBHM
TAF
KBHM 241138Z 2412/2512 00000KT P6SM BKN050
     FM241400 26006KT P6SM VCSH BKN025 BKN080
     FM241700 30005KT P6SM VCTS BKN035CB
     FM242000 31005KT P6SM SCT040=

Latest METAR

371
SAUS70 KWBC 242000 RRD
MTRBHM
METAR KBHM 241953Z 31011KT 10SM SCT036TCU 32/21 A2997 RMK AO2 SLP141 TCU
S T03170206


USA.gov is the U.S. government's official web portal to all federal, state and local government web resources and services.